sensor_id;sensor_type;location;lat;lon;timestamp;P1;durP1;ratioP1;P2;durP2;ratioP2
9200;SDS011;4635;48.686;9.008;2022-12-18T00:00:30;89.30;;;32.20;;
9200;SDS011;4635;48.686;9.008;2022-12-18T00:03:26;79.35;;;32.78;;
9200;SDS011;4635;48.686;9.008;2022-12-18T00:06:00;84.30;;;32.08;;
9200;SDS011;4635;48.686;9.008;2022-12-18T00:08:31;67.97;;;28.20;;
9200;SDS011;4635;48.686;9.008;2022-12-18T00:14:08;78.22;;;30.10;;
9200;SDS011;4635;48.686;9.008;2022-12-18T00:16:42;64.32;;;26.83;;
9200;SDS011;4635;48.686;9.008;2022-12-18T00:19:36;72.85;;;28.77;;
9200;SDS011;4635;48.686;9.008;2022-12-18T00:22:21;72.38;;;28.38;;
9200;SDS011;4635;48.686;9.008;2022-12-18T00:25:05;66.70;;;26.08;;
9200;SDS011;4635;48.686;9.008;2022-12-18T00:27:49;87.30;;;28.52;;
9200;SDS011;4635;48.686;9.008;2022-12-18T00:30:24;67.68;;;27.08;;
9200;SDS011;4635;48.686;9.008;2022-12-18T00:33:10;67.60;;;27.35;;
9200;SDS011;4635;48.686;9.008;2022-12-18T00:36:07;82.03;;;31.77;;
9200;SDS011;4635;48.686;9.008;2022-12-18T00:38:49;64.03;;;28.00;;
9200;SDS011;4635;48.686;9.008;2022-12-18T00:41:34;59.58;;;28.10;;
9200;SDS011;4635;48.686;9.008;2022-12-18T00:44:31;61.55;;;26.98;;
9200;SDS011;4635;48.686;9.008;2022-12-18T00:47:04;65.55;;;30.25;;
9200;SDS011;4635;48.686;9.008;2022-12-18T00:49:36;83.78;;;30.73;;
9200;SDS011;4635;48.686;9.008;2022-12-18T00:52:12;61.53;;;26.35;;
9200;SDS011;4635;48.686;9.008;2022-12-18T00:54:56;76.53;;;30.73;;
9200;SDS011;4635;48.686;9.008;2022-12-18T00:57:24;67.70;;;30.90;;
9200;SDS011;4635;48.686;9.008;2022-12-18T00:59:53;52.67;;;27.05;;
9200;SDS011;4635;48.686;9.008;2022-12-18T01:02:40;71.70;;;27.02;;
9200;SDS011;4635;48.686;9.008;2022-12-18T01:05:23;76.90;;;30.42;;
9200;SDS011;4635;48.686;9.008;2022-12-18T01:07:59;90.60;;;31.42;;
9200;SDS011;4635;48.686;9.008;2022-12-18T01:10:32;79.60;;;29.65;;
9200;SDS011;4635;48.686;9.008;2022-12-18T01:13:09;65.00;;;30.67;;
9200;SDS011;4635;48.686;9.008;2022-12-18T01:15:48;77.53;;;30.50;;
9200;SDS011;4635;48.686;9.008;2022-12-18T01:18:20;66.15;;;28.85;;
9200;SDS011;4635;48.686;9.008;2022-12-18T01:21:12;67.93;;;25.52;;
9200;SDS011;4635;48.686;9.008;2022-12-18T01:23:50;70.45;;;30.55;;
9200;SDS011;4635;48.686;9.008;2022-12-18T01:26:40;83.00;;;30.85;;
9200;SDS011;4635;48.686;9.008;2022-12-18T01:29:17;94.43;;;35.30;;
9200;SDS011;4635;48.686;9.008;2022-12-18T01:31:50;69.13;;;28.13;;
9200;SDS011;4635;48.686;9.008;2022-12-18T01:34:35;63.92;;;28.98;;
9200;SDS011;4635;48.686;9.008;2022-12-18T01:37:09;70.40;;;30.88;;
9200;SDS011;4635;48.686;9.008;2022-12-18T01:39:55;69.43;;;28.30;;
9200;SDS011;4635;48.686;9.008;2022-12-18T01:42:47;57.55;;;26.42;;
9200;SDS011;4635;48.686;9.008;2022-12-18T01:46:02;56.08;;;25.33;;
9200;SDS011;4635;48.686;9.008;2022-12-18T01:48:41;53.60;;;24.13;;
9200;SDS011;4635;48.686;9.008;2022-12-18T01:51:22;62.25;;;25.20;;
9200;SDS011;4635;48.686;9.008;2022-12-18T01:53:51;64.00;;;26.27;;
9200;SDS011;4635;48.686;9.008;2022-12-18T01:56:23;63.00;;;26.52;;
9200;SDS011;4635;48.686;9.008;2022-12-18T01:59:01;72.13;;;25.00;;
9200;SDS011;4635;48.686;9.008;2022-12-18T02:01:35;63.15;;;26.90;;
9200;SDS011;4635;48.686;9.008;2022-12-18T02:04:19;55.05;;;24.23;;
9200;SDS011;4635;48.686;9.008;2022-12-18T02:07:00;52.28;;;23.95;;
9200;SDS011;4635;48.686;9.008;2022-12-18T02:09:35;61.08;;;24.50;;
9200;SDS011;4635;48.686;9.008;2022-12-18T02:12:16;65.95;;;27.88;;
9200;SDS011;4635;48.686;9.008;2022-12-18T02:17:58;58.83;;;27.27;;
9200;SDS011;4635;48.686;9.008;2022-12-18T02:20:43;56.55;;;24.13;;
9200;SDS011;4635;48.686;9.008;2022-12-18T02:23:19;64.00;;;26.98;;
9200;SDS011;4635;48.686;9.008;2022-12-18T02:26:11;70.85;;;28.20;;
9200;SDS011;4635;48.686;9.008;2022-12-18T02:29:00;72.65;;;26.15;;
9200;SDS011;4635;48.686;9.008;2022-12-18T02:31:57;60.55;;;23.45;;
9200;SDS011;4635;48.686;9.008;2022-12-18T02:34:37;51.58;;;21.88;;
9200;SDS011;4635;48.686;9.008;2022-12-18T02:37:12;51.42;;;24.02;;
9200;SDS011;4635;48.686;9.008;2022-12-18T02:39:46;66.57;;;24.65;;
9200;SDS011;4635;48.686;9.008;2022-12-18T02:42:22;53.92;;;24.83;;
9200;SDS011;4635;48.686;9.008;2022-12-18T02:45:22;62.60;;;25.25;;
9200;SDS011;4635;48.686;9.008;2022-12-18T02:47:54;62.05;;;25.77;;
9200;SDS011;4635;48.686;9.008;2022-12-18T02:50:26;66.22;;;25.92;;
9200;SDS011;4635;48.686;9.008;2022-12-18T02:53:05;52.10;;;25.08;;
9200;SDS011;4635;48.686;9.008;2022-12-18T02:55:53;62.08;;;22.92;;
9200;SDS011;4635;48.686;9.008;2022-12-18T02:58:40;58.05;;;25.20;;
9200;SDS011;4635;48.686;9.008;2022-12-18T03:01:19;60.70;;;24.83;;
9200;SDS011;4635;48.686;9.008;2022-12-18T03:03:56;63.17;;;26.45;;
9200;SDS011;4635;48.686;9.008;2022-12-18T03:06:33;69.60;;;27.40;;
9200;SDS011;4635;48.686;9.008;2022-12-18T03:09:17;52.95;;;23.50;;
9200;SDS011;4635;48.686;9.008;2022-12-18T03:11:53;53.53;;;24.85;;
9200;SDS011;4635;48.686;9.008;2022-12-18T03:17:34;62.03;;;26.20;;
9200;SDS011;4635;48.686;9.008;2022-12-18T03:20:22;54.70;;;25.08;;
9200;SDS011;4635;48.686;9.008;2022-12-18T03:22:57;55.45;;;25.50;;
9200;SDS011;4635;48.686;9.008;2022-12-18T03:25:35;54.75;;;25.20;;
9200;SDS011;4635;48.686;9.008;2022-12-18T03:28:18;52.45;;;24.85;;
9200;SDS011;4635;48.686;9.008;2022-12-18T03:30:57;53.58;;;24.75;;
9200;SDS011;4635;48.686;9.008;2022-12-18T03:33:37;56.20;;;26.15;;
9200;SDS011;4635;48.686;9.008;2022-12-18T03:36:11;55.47;;;23.98;;
9200;SDS011;4635;48.686;9.008;2022-12-18T03:38:47;55.00;;;26.55;;
9200;SDS011;4635;48.686;9.008;2022-12-18T03:41:18;58.20;;;24.90;;
9200;SDS011;4635;48.686;9.008;2022-12-18T03:43:59;57.47;;;24.75;;
9200;SDS011;4635;48.686;9.008;2022-12-18T03:46:40;59.55;;;26.67;;
9200;SDS011;4635;48.686;9.008;2022-12-18T03:49:33;56.40;;;24.13;;
9200;SDS011;4635;48.686;9.008;2022-12-18T03:52:17;53.90;;;23.65;;
9200;SDS011;4635;48.686;9.008;2022-12-18T03:55:09;56.67;;;23.85;;
9200;SDS011;4635;48.686;9.008;2022-12-18T03:57:38;61.60;;;23.48;;
9200;SDS011;4635;48.686;9.008;2022-12-18T04:00:29;54.08;;;24.23;;
9200;SDS011;4635;48.686;9.008;2022-12-18T04:03:32;56.38;;;23.17;;
9200;SDS011;4635;48.686;9.008;2022-12-18T04:06:17;63.00;;;25.27;;
9200;SDS011;4635;48.686;9.008;2022-12-18T04:09:06;53.38;;;23.85;;
9200;SDS011;4635;48.686;9.008;2022-12-18T04:11:40;61.30;;;26.08;;
9200;SDS011;4635;48.686;9.008;2022-12-18T04:14:26;54.28;;;22.50;;
9200;SDS011;4635;48.686;9.008;2022-12-18T04:17:11;58.88;;;24.13;;
9200;SDS011;4635;48.686;9.008;2022-12-18T04:23:04;54.70;;;23.75;;
9200;SDS011;4635;48.686;9.008;2022-12-18T04:25:43;69.63;;;26.00;;
9200;SDS011;4635;48.686;9.008;2022-12-18T04:28:34;49.20;;;21.75;;
9200;SDS011;4635;48.686;9.008;2022-12-18T04:31:10;53.30;;;23.73;;
9200;SDS011;4635;48.686;9.008;2022-12-18T04:33:47;52.78;;;23.50;;
9200;SDS011;4635;48.686;9.008;2022-12-18T04:36:24;55.13;;;23.90;;
9200;SDS011;4635;48.686;9.008;2022-12-18T04:38:54;52.20;;;21.90;;
9200;SDS011;4635;48.686;9.008;2022-12-18T04:44:31;55.08;;;22.92;;
9200;SDS011;4635;48.686;9.008;2022-12-18T04:47:22;54.30;;;23.00;;
9200;SDS011;4635;48.686;9.008;2022-12-18T04:49:52;63.95;;;21.70;;
9200;SDS011;4635;48.686;9.008;2022-12-18T04:52:24;58.88;;;23.95;;
9200;SDS011;4635;48.686;9.008;2022-12-18T04:55:03;64.05;;;24.02;;
9200;SDS011;4635;48.686;9.008;2022-12-18T04:57:48;61.75;;;23.48;;
9200;SDS011;4635;48.686;9.008;2022-12-18T05:00:40;60.85;;;24.80;;
9200;SDS011;4635;48.686;9.008;2022-12-18T05:03:10;53.38;;;23.25;;
9200;SDS011;4635;48.686;9.008;2022-12-18T05:05:49;63.15;;;23.10;;
9200;SDS011;4635;48.686;9.008;2022-12-18T05:08:34;59.50;;;23.00;;
9200;SDS011;4635;48.686;9.008;2022-12-18T05:11:09;65.15;;;25.20;;
9200;SDS011;4635;48.686;9.008;2022-12-18T05:16:25;58.05;;;24.42;;
9200;SDS011;4635;48.686;9.008;2022-12-18T05:21:33;61.83;;;25.25;;
9200;SDS011;4635;48.686;9.008;2022-12-18T05:24:07;60.78;;;23.25;;
9200;SDS011;4635;48.686;9.008;2022-12-18T05:26:42;63.53;;;24.73;;
9200;SDS011;4635;48.686;9.008;2022-12-18T05:29:16;53.28;;;22.67;;
9200;SDS011;4635;48.686;9.008;2022-12-18T05:31:50;53.28;;;23.98;;
9200;SDS011;4635;48.686;9.008;2022-12-18T05:34:29;58.47;;;25.35;;
9200;SDS011;4635;48.686;9.008;2022-12-18T05:37:03;64.90;;;25.17;;
9200;SDS011;4635;48.686;9.008;2022-12-18T05:39:40;52.90;;;20.73;;
9200;SDS011;4635;48.686;9.008;2022-12-18T05:42:40;66.47;;;23.50;;
9200;SDS011;4635;48.686;9.008;2022-12-18T05:45:11;90.25;;;25.83;;
9200;SDS011;4635;48.686;9.008;2022-12-18T05:48:04;56.65;;;21.75;;
9200;SDS011;4635;48.686;9.008;2022-12-18T05:51:02;56.97;;;24.90;;
9200;SDS011;4635;48.686;9.008;2022-12-18T05:53:35;53.80;;;24.88;;
9200;SDS011;4635;48.686;9.008;2022-12-18T05:59:03;60.15;;;22.33;;
9200;SDS011;4635;48.686;9.008;2022-12-18T06:01:40;63.88;;;25.30;;
9200;SDS011;4635;48.686;9.008;2022-12-18T06:04:19;57.30;;;22.52;;
9200;SDS011;4635;48.686;9.008;2022-12-18T06:06:57;52.95;;;22.00;;
9200;SDS011;4635;48.686;9.008;2022-12-18T06:12:34;62.00;;;23.13;;
9200;SDS011;4635;48.686;9.008;2022-12-18T06:15:28;69.75;;;25.15;;
9200;SDS011;4635;48.686;9.008;2022-12-18T06:18:00;62.88;;;23.75;;
9200;SDS011;4635;48.686;9.008;2022-12-18T06:20:36;53.50;;;23.00;;
9200;SDS011;4635;48.686;9.008;2022-12-18T06:23:23;57.33;;;23.65;;
9200;SDS011;4635;48.686;9.008;2022-12-18T06:26:10;56.35;;;21.30;;
9200;SDS011;4635;48.686;9.008;2022-12-18T06:28:55;48.42;;;19.55;;
9200;SDS011;4635;48.686;9.008;2022-12-18T06:31:35;61.03;;;23.92;;
9200;SDS011;4635;48.686;9.008;2022-12-18T06:34:27;65.72;;;22.45;;
9200;SDS011;4635;48.686;9.008;2022-12-18T06:37:09;49.50;;;22.33;;
9200;SDS011;4635;48.686;9.008;2022-12-18T06:39:50;54.33;;;20.52;;
9200;SDS011;4635;48.686;9.008;2022-12-18T06:42:28;50.35;;;22.42;;
9200;SDS011;4635;48.686;9.008;2022-12-18T06:45:23;44.97;;;19.10;;
9200;SDS011;4635;48.686;9.008;2022-12-18T06:48:02;51.10;;;21.15;;
9200;SDS011;4635;48.686;9.008;2022-12-18T06:50:43;53.78;;;20.40;;
9200;SDS011;4635;48.686;9.008;2022-12-18T06:53:16;60.65;;;22.85;;
9200;SDS011;4635;48.686;9.008;2022-12-18T06:55:51;51.95;;;21.88;;
9200;SDS011;4635;48.686;9.008;2022-12-18T06:58:28;46.47;;;22.23;;
9200;SDS011;4635;48.686;9.008;2022-12-18T07:01:15;46.38;;;19.00;;
9200;SDS011;4635;48.686;9.008;2022-12-18T07:03:47;53.45;;;22.30;;
9200;SDS011;4635;48.686;9.008;2022-12-18T07:06:21;52.17;;;22.50;;
9200;SDS011;4635;48.686;9.008;2022-12-18T07:09:04;53.08;;;19.88;;
9200;SDS011;4635;48.686;9.008;2022-12-18T07:11:33;49.03;;;20.85;;
9200;SDS011;4635;48.686;9.008;2022-12-18T07:14:04;48.33;;;21.92;;
9200;SDS011;4635;48.686;9.008;2022-12-18T07:16:52;49.45;;;19.67;;
9200;SDS011;4635;48.686;9.008;2022-12-18T07:19:27;48.88;;;18.20;;
9200;SDS011;4635;48.686;9.008;2022-12-18T07:22:01;45.65;;;19.55;;
9200;SDS011;4635;48.686;9.008;2022-12-18T07:24:43;49.30;;;20.23;;
9200;SDS011;4635;48.686;9.008;2022-12-18T07:27:16;56.95;;;21.08;;
9200;SDS011;4635;48.686;9.008;2022-12-18T07:30:01;44.45;;;19.40;;
9200;SDS011;4635;48.686;9.008;2022-12-18T07:32:51;50.38;;;19.35;;
9200;SDS011;4635;48.686;9.008;2022-12-18T07:35:52;50.03;;;19.35;;
9200;SDS011;4635;48.686;9.008;2022-12-18T07:38:21;51.65;;;21.17;;
9200;SDS011;4635;48.686;9.008;2022-12-18T07:40:53;57.17;;;21.98;;
9200;SDS011;4635;48.686;9.008;2022-12-18T07:43:32;51.58;;;21.08;;
9200;SDS011;4635;48.686;9.008;2022-12-18T07:46:09;53.40;;;20.40;;
9200;SDS011;4635;48.686;9.008;2022-12-18T07:48:46;57.60;;;22.50;;
9200;SDS011;4635;48.686;9.008;2022-12-18T07:51:18;49.58;;;22.45;;
9200;SDS011;4635;48.686;9.008;2022-12-18T07:53:55;58.85;;;23.70;;
9200;SDS011;4635;48.686;9.008;2022-12-18T07:56:46;51.63;;;22.42;;
9200;SDS011;4635;48.686;9.008;2022-12-18T07:59:32;53.92;;;22.20;;
9200;SDS011;4635;48.686;9.008;2022-12-18T08:02:03;48.88;;;23.13;;
9200;SDS011;4635;48.686;9.008;2022-12-18T08:04:48;49.85;;;22.40;;
9200;SDS011;4635;48.686;9.008;2022-12-18T08:07:22;47.20;;;22.30;;
9200;SDS011;4635;48.686;9.008;2022-12-18T08:09:52;52.95;;;20.92;;
9200;SDS011;4635;48.686;9.008;2022-12-18T08:12:38;40.58;;;17.92;;
9200;SDS011;4635;48.686;9.008;2022-12-18T08:15:18;42.65;;;19.77;;
9200;SDS011;4635;48.686;9.008;2022-12-18T08:17:56;39.97;;;18.63;;
9200;SDS011;4635;48.686;9.008;2022-12-18T08:20:32;56.53;;;20.63;;
9200;SDS011;4635;48.686;9.008;2022-12-18T08:28:47;45.28;;;21.25;;
9200;SDS011;4635;48.686;9.008;2022-12-18T08:31:23;40.60;;;21.25;;
9200;SDS011;4635;48.686;9.008;2022-12-18T08:34:07;41.33;;;20.05;;
9200;SDS011;4635;48.686;9.008;2022-12-18T08:37:00;72.43;;;24.52;;
9200;SDS011;4635;48.686;9.008;2022-12-18T08:42:35;49.28;;;20.90;;
9200;SDS011;4635;48.686;9.008;2022-12-18T08:45:26;48.22;;;19.33;;
9200;SDS011;4635;48.686;9.008;2022-12-18T08:48:11;41.97;;;20.38;;
9200;SDS011;4635;48.686;9.008;2022-12-18T08:50:53;50.83;;;20.70;;
9200;SDS011;4635;48.686;9.008;2022-12-18T08:53:37;56.50;;;23.08;;
9200;SDS011;4635;48.686;9.008;2022-12-18T08:59:46;52.97;;;22.70;;
9200;SDS011;4635;48.686;9.008;2022-12-18T09:05:31;56.20;;;20.52;;
9200;SDS011;4635;48.686;9.008;2022-12-18T09:08:13;59.33;;;21.33;;
9200;SDS011;4635;48.686;9.008;2022-12-18T09:10:46;53.63;;;22.90;;
9200;SDS011;4635;48.686;9.008;2022-12-18T09:13:22;46.40;;;21.40;;
9200;SDS011;4635;48.686;9.008;2022-12-18T09:16:15;47.88;;;21.30;;
9200;SDS011;4635;48.686;9.008;2022-12-18T09:18:52;56.00;;;22.75;;
9200;SDS011;4635;48.686;9.008;2022-12-18T09:21:28;58.40;;;22.55;;
9200;SDS011;4635;48.686;9.008;2022-12-18T09:24:00;40.75;;;19.63;;
9200;SDS011;4635;48.686;9.008;2022-12-18T09:26:42;53.35;;;23.08;;
9200;SDS011;4635;48.686;9.008;2022-12-18T09:29:29;46.88;;;20.30;;
9200;SDS011;4635;48.686;9.008;2022-12-18T09:32:24;53.17;;;22.67;;
9200;SDS011;4635;48.686;9.008;2022-12-18T09:34:56;49.78;;;21.17;;
9200;SDS011;4635;48.686;9.008;2022-12-18T09:37:36;45.92;;;21.80;;
9200;SDS011;4635;48.686;9.008;2022-12-18T09:40:18;48.40;;;23.10;;
9200;SDS011;4635;48.686;9.008;2022-12-18T09:43:21;52.78;;;24.23;;
9200;SDS011;4635;48.686;9.008;2022-12-18T09:46:15;55.78;;;24.80;;
9200;SDS011;4635;48.686;9.008;2022-12-18T09:49:12;50.80;;;21.90;;
9200;SDS011;4635;48.686;9.008;2022-12-18T09:52:02;51.00;;;21.63;;
9200;SDS011;4635;48.686;9.008;2022-12-18T09:54:50;57.72;;;24.13;;
9200;SDS011;4635;48.686;9.008;2022-12-18T09:57:28;50.47;;;23.00;;
9200;SDS011;4635;48.686;9.008;2022-12-18T10:00:08;59.35;;;25.58;;
9200;SDS011;4635;48.686;9.008;2022-12-18T10:02:47;47.90;;;22.33;;
9200;SDS011;4635;48.686;9.008;2022-12-18T10:05:28;56.70;;;24.15;;
9200;SDS011;4635;48.686;9.008;2022-12-18T10:08:16;47.55;;;22.48;;
9200;SDS011;4635;48.686;9.008;2022-12-18T10:11:16;52.33;;;21.77;;
9200;SDS011;4635;48.686;9.008;2022-12-18T10:14:08;55.47;;;22.30;;
9200;SDS011;4635;48.686;9.008;2022-12-18T10:17:03;50.85;;;20.40;;
9200;SDS011;4635;48.686;9.008;2022-12-18T10:19:43;60.00;;;25.95;;
9200;SDS011;4635;48.686;9.008;2022-12-18T10:22:38;49.67;;;22.00;;
9200;SDS011;4635;48.686;9.008;2022-12-18T10:25:28;54.42;;;20.98;;
9200;SDS011;4635;48.686;9.008;2022-12-18T10:28:07;50.72;;;22.92;;
9200;SDS011;4635;48.686;9.008;2022-12-18T10:30:49;47.72;;;20.55;;
9200;SDS011;4635;48.686;9.008;2022-12-18T10:36:46;44.58;;;21.08;;
9200;SDS011;4635;48.686;9.008;2022-12-18T10:39:32;60.47;;;23.95;;
9200;SDS011;4635;48.686;9.008;2022-12-18T10:45:36;48.60;;;23.10;;
9200;SDS011;4635;48.686;9.008;2022-12-18T10:48:25;51.88;;;22.25;;
9200;SDS011;4635;48.686;9.008;2022-12-18T10:51:06;51.42;;;22.33;;
9200;SDS011;4635;48.686;9.008;2022-12-18T10:57:34;46.10;;;23.23;;
9200;SDS011;4635;48.686;9.008;2022-12-18T11:00:20;40.08;;;21.67;;
9200;SDS011;4635;48.686;9.008;2022-12-18T11:06:27;51.90;;;22.70;;
9200;SDS011;4635;48.686;9.008;2022-12-18T11:09:03;48.15;;;22.70;;
9200;SDS011;4635;48.686;9.008;2022-12-18T11:11:51;45.17;;;20.27;;
9200;SDS011;4635;48.686;9.008;2022-12-18T11:14:32;52.85;;;21.98;;
9200;SDS011;4635;48.686;9.008;2022-12-18T11:17:18;50.38;;;23.20;;
9200;SDS011;4635;48.686;9.008;2022-12-18T11:19:59;51.88;;;22.25;;
9200;SDS011;4635;48.686;9.008;2022-12-18T11:22:40;46.65;;;21.45;;
9200;SDS011;4635;48.686;9.008;2022-12-18T11:25:21;47.47;;;21.63;;
9200;SDS011;4635;48.686;9.008;2022-12-18T11:28:25;48.33;;;21.67;;
9200;SDS011;4635;48.686;9.008;2022-12-18T11:31:26;51.90;;;22.30;;
9200;SDS011;4635;48.686;9.008;2022-12-18T11:36:50;46.17;;;20.42;;
9200;SDS011;4635;48.686;9.008;2022-12-18T11:39:36;47.30;;;22.92;;
9200;SDS011;4635;48.686;9.008;2022-12-18T11:48:05;49.55;;;21.88;;
9200;SDS011;4635;48.686;9.008;2022-12-18T11:50:47;54.92;;;24.30;;
9200;SDS011;4635;48.686;9.008;2022-12-18T11:53:35;46.85;;;20.90;;
9200;SDS011;4635;48.686;9.008;2022-12-18T11:56:16;53.47;;;23.17;;
9200;SDS011;4635;48.686;9.008;2022-12-18T11:59:02;52.05;;;20.92;;
9200;SDS011;4635;48.686;9.008;2022-12-18T12:01:51;52.08;;;20.77;;
9200;SDS011;4635;48.686;9.008;2022-12-18T12:07:56;54.13;;;22.17;;
9200;SDS011;4635;48.686;9.008;2022-12-18T12:10:47;48.08;;;21.77;;
9200;SDS011;4635;48.686;9.008;2022-12-18T12:13:32;42.47;;;20.92;;
9200;SDS011;4635;48.686;9.008;2022-12-18T12:19:29;52.30;;;20.42;;
9200;SDS011;4635;48.686;9.008;2022-12-18T12:22:23;55.72;;;23.30;;
9200;SDS011;4635;48.686;9.008;2022-12-18T12:25:01;54.13;;;21.33;;
9200;SDS011;4635;48.686;9.008;2022-12-18T12:28:01;56.28;;;22.02;;
9200;SDS011;4635;48.686;9.008;2022-12-18T12:31:15;52.55;;;21.92;;
9200;SDS011;4635;48.686;9.008;2022-12-18T12:34:37;53.00;;;23.13;;
9200;SDS011;4635;48.686;9.008;2022-12-18T12:37:15;42.13;;;20.80;;
9200;SDS011;4635;48.686;9.008;2022-12-18T12:44:45;46.85;;;22.50;;
9200;SDS011;4635;48.686;9.008;2022-12-18T12:46:24;54.97;;;22.23;;
9200;SDS011;4635;48.686;9.008;2022-12-18T12:49:03;50.30;;;21.33;;
9200;SDS011;4635;48.686;9.008;2022-12-18T13:11:54;49.47;;;21.60;;
9200;SDS011;4635;48.686;9.008;2022-12-18T13:15:00;47.13;;;20.60;;
9200;SDS011;4635;48.686;9.008;2022-12-18T13:18:42;58.65;;;20.55;;
9200;SDS011;4635;48.686;9.008;2022-12-18T13:22:12;58.38;;;21.58;;
9200;SDS011;4635;48.686;9.008;2022-12-18T13:25:17;54.30;;;21.85;;
9200;SDS011;4635;48.686;9.008;2022-12-18T13:46:05;58.65;;;21.65;;
9200;SDS011;4635;48.686;9.008;2022-12-18T13:52:36;56.88;;;23.52;;
9200;SDS011;4635;48.686;9.008;2022-12-18T14:08:58;61.17;;;24.70;;
9200;SDS011;4635;48.686;9.008;2022-12-18T14:12:04;59.50;;;25.30;;
9200;SDS011;4635;48.686;9.008;2022-12-18T14:15:01;57.05;;;25.90;;
9200;SDS011;4635;48.686;9.008;2022-12-18T14:21:50;64.63;;;26.38;;
9200;SDS011;4635;48.686;9.008;2022-12-18T14:28:02;65.28;;;26.35;;
9200;SDS011;4635;48.686;9.008;2022-12-18T14:50:34;56.20;;;27.25;;
9200;SDS011;4635;48.686;9.008;2022-12-18T14:52:20;72.70;;;28.98;;
9200;SDS011;4635;48.686;9.008;2022-12-18T14:55:15;68.78;;;29.80;;
9200;SDS011;4635;48.686;9.008;2022-12-18T15:01:56;69.72;;;30.42;;
9200;SDS011;4635;48.686;9.008;2022-12-18T15:05:04;69.78;;;26.08;;
9200;SDS011;4635;48.686;9.008;2022-12-18T15:34:32;70.05;;;28.80;;
9200;SDS011;4635;48.686;9.008;2022-12-18T15:37:46;68.47;;;26.65;;
9200;SDS011;4635;48.686;9.008;2022-12-18T15:44:35;53.83;;;25.05;;
9200;SDS011;4635;48.686;9.008;2022-12-18T15:57:51;70.80;;;29.10;;
9200;SDS011;4635;48.686;9.008;2022-12-18T16:00:43;66.93;;;28.35;;
9200;SDS011;4635;48.686;9.008;2022-12-18T16:03:29;65.05;;;25.30;;
9200;SDS011;4635;48.686;9.008;2022-12-18T16:11:43;74.35;;;26.80;;
9200;SDS011;4635;48.686;9.008;2022-12-18T16:14:30;73.28;;;27.90;;
9200;SDS011;4635;48.686;9.008;2022-12-18T16:17:22;72.53;;;29.15;;
9200;SDS011;4635;48.686;9.008;2022-12-18T16:23:32;61.50;;;26.75;;
9200;SDS011;4635;48.686;9.008;2022-12-18T16:26:09;69.85;;;26.85;;
9200;SDS011;4635;48.686;9.008;2022-12-18T16:29:06;74.53;;;29.80;;
9200;SDS011;4635;48.686;9.008;2022-12-18T16:31:41;73.32;;;30.60;;
9200;SDS011;4635;48.686;9.008;2022-12-18T16:34:22;68.25;;;29.40;;
9200;SDS011;4635;48.686;9.008;2022-12-18T16:37:11;72.60;;;27.45;;
9200;SDS011;4635;48.686;9.008;2022-12-18T16:39:49;62.05;;;27.63;;
9200;SDS011;4635;48.686;9.008;2022-12-18T16:42:40;66.95;;;27.40;;
9200;SDS011;4635;48.686;9.008;2022-12-18T16:45:27;67.10;;;28.73;;
9200;SDS011;4635;48.686;9.008;2022-12-18T16:51:04;64.60;;;27.45;;
9200;SDS011;4635;48.686;9.008;2022-12-18T16:54:37;63.30;;;26.35;;
9200;SDS011;4635;48.686;9.008;2022-12-18T16:56:51;57.85;;;27.92;;
9200;SDS011;4635;48.686;9.008;2022-12-18T16:59:23;61.63;;;26.85;;
9200;SDS011;4635;48.686;9.008;2022-12-18T17:02:05;67.10;;;27.35;;
9200;SDS011;4635;48.686;9.008;2022-12-18T17:05:33;66.95;;;26.50;;
9200;SDS011;4635;48.686;9.008;2022-12-18T17:08:11;54.30;;;24.63;;
9200;SDS011;4635;48.686;9.008;2022-12-18T17:10:55;58.10;;;27.58;;
9200;SDS011;4635;48.686;9.008;2022-12-18T17:13:32;75.10;;;27.80;;
9200;SDS011;4635;48.686;9.008;2022-12-18T17:16:23;67.28;;;26.25;;
9200;SDS011;4635;48.686;9.008;2022-12-18T17:21:58;63.58;;;25.50;;
9200;SDS011;4635;48.686;9.008;2022-12-18T17:25:02;54.45;;;23.70;;
9200;SDS011;4635;48.686;9.008;2022-12-18T17:27:37;55.42;;;24.65;;
9200;SDS011;4635;48.686;9.008;2022-12-18T17:30:16;62.63;;;25.50;;
9200;SDS011;4635;48.686;9.008;2022-12-18T17:36:39;70.32;;;28.55;;
9200;SDS011;4635;48.686;9.008;2022-12-18T17:39:14;55.83;;;24.33;;
9200;SDS011;4635;48.686;9.008;2022-12-18T17:41:53;59.17;;;24.70;;
9200;SDS011;4635;48.686;9.008;2022-12-18T17:45:04;63.88;;;24.77;;
9200;SDS011;4635;48.686;9.008;2022-12-18T17:48:05;60.78;;;25.33;;
9200;SDS011;4635;48.686;9.008;2022-12-18T17:50:54;59.00;;;25.65;;
9200;SDS011;4635;48.686;9.008;2022-12-18T17:53:40;63.30;;;26.27;;
9200;SDS011;4635;48.686;9.008;2022-12-18T17:56:11;68.75;;;27.45;;
9200;SDS011;4635;48.686;9.008;2022-12-18T17:58:56;67.85;;;27.40;;
9200;SDS011;4635;48.686;9.008;2022-12-18T18:01:51;66.32;;;26.33;;
9200;SDS011;4635;48.686;9.008;2022-12-18T18:05:02;58.40;;;23.42;;
9200;SDS011;4635;48.686;9.008;2022-12-18T18:07:51;61.95;;;24.00;;
9200;SDS011;4635;48.686;9.008;2022-12-18T18:14:42;61.38;;;24.88;;
9200;SDS011;4635;48.686;9.008;2022-12-18T18:20:42;65.57;;;26.38;;
9200;SDS011;4635;48.686;9.008;2022-12-18T18:23:24;63.60;;;26.60;;
9200;SDS011;4635;48.686;9.008;2022-12-18T18:26:18;69.55;;;28.02;;
9200;SDS011;4635;48.686;9.008;2022-12-18T18:29:18;57.47;;;26.75;;
9200;SDS011;4635;48.686;9.008;2022-12-18T18:31:59;71.95;;;28.38;;
9200;SDS011;4635;48.686;9.008;2022-12-18T18:40:21;69.72;;;30.45;;
9200;SDS011;4635;48.686;9.008;2022-12-18T18:42:54;75.20;;;28.40;;
9200;SDS011;4635;48.686;9.008;2022-12-18T18:45:45;64.75;;;25.85;;
9200;SDS011;4635;48.686;9.008;2022-12-18T18:48:50;73.22;;;29.63;;
9200;SDS011;4635;48.686;9.008;2022-12-18T18:51:42;73.97;;;30.67;;
9200;SDS011;4635;48.686;9.008;2022-12-18T18:54:53;71.38;;;28.55;;
9200;SDS011;4635;48.686;9.008;2022-12-18T18:57:46;72.05;;;29.52;;
9200;SDS011;4635;48.686;9.008;2022-12-18T19:03:56;67.18;;;28.63;;
9200;SDS011;4635;48.686;9.008;2022-12-18T19:06:50;75.93;;;31.52;;
9200;SDS011;4635;48.686;9.008;2022-12-18T19:09:24;73.60;;;30.98;;
9200;SDS011;4635;48.686;9.008;2022-12-18T19:18:28;74.93;;;31.52;;
9200;SDS011;4635;48.686;9.008;2022-12-18T19:21:39;77.18;;;32.30;;
9200;SDS011;4635;48.686;9.008;2022-12-18T19:24:29;69.45;;;31.55;;
9200;SDS011;4635;48.686;9.008;2022-12-18T19:27:37;74.40;;;32.70;;
9200;SDS011;4635;48.686;9.008;2022-12-18T19:30:36;78.68;;;31.45;;
9200;SDS011;4635;48.686;9.008;2022-12-18T19:33:27;70.35;;;30.25;;
9200;SDS011;4635;48.686;9.008;2022-12-18T19:36:30;79.45;;;32.28;;
9200;SDS011;4635;48.686;9.008;2022-12-18T19:39:18;87.88;;;31.98;;
9200;SDS011;4635;48.686;9.008;2022-12-18T19:44:31;90.83;;;34.70;;
9200;SDS011;4635;48.686;9.008;2022-12-18T19:50:16;89.70;;;33.42;;
9200;SDS011;4635;48.686;9.008;2022-12-18T19:59:43;105.00;;;36.08;;
9200;SDS011;4635;48.686;9.008;2022-12-18T20:05:30;83.00;;;34.03;;
9200;SDS011;4635;48.686;9.008;2022-12-18T20:08:20;76.88;;;32.75;;
9200;SDS011;4635;48.686;9.008;2022-12-18T20:11:22;83.07;;;33.58;;
9200;SDS011;4635;48.686;9.008;2022-12-18T20:14:10;84.85;;;33.40;;
9200;SDS011;4635;48.686;9.008;2022-12-18T20:20:02;94.15;;;38.78;;
9200;SDS011;4635;48.686;9.008;2022-12-18T20:22:46;85.47;;;34.42;;
9200;SDS011;4635;48.686;9.008;2022-12-18T20:26:04;74.65;;;33.88;;
9200;SDS011;4635;48.686;9.008;2022-12-18T20:28:49;78.50;;;31.80;;
9200;SDS011;4635;48.686;9.008;2022-12-18T20:31:22;94.80;;;34.25;;
9200;SDS011;4635;48.686;9.008;2022-12-18T20:34:15;92.72;;;35.47;;
9200;SDS011;4635;48.686;9.008;2022-12-18T20:40:27;85.35;;;33.35;;
9200;SDS011;4635;48.686;9.008;2022-12-18T20:43:28;77.40;;;33.47;;
9200;SDS011;4635;48.686;9.008;2022-12-18T20:49:29;85.55;;;33.42;;
9200;SDS011;4635;48.686;9.008;2022-12-18T20:55:18;79.88;;;33.60;;
9200;SDS011;4635;48.686;9.008;2022-12-18T20:58:13;66.55;;;29.95;;
9200;SDS011;4635;48.686;9.008;2022-12-18T21:04:31;74.35;;;30.88;;